createdAt,value
2023-05-09T00:01:13.028Z,13.43
2023-05-09T00:03:40.220Z,13.40
2023-05-09T00:06:07.327Z,13.40
2023-05-09T00:08:33.910Z,13.39
2023-05-09T00:11:01.499Z,13.41
2023-05-09T00:13:28.490Z,13.43
2023-05-09T00:15:55.043Z,13.41
2023-05-09T00:18:22.184Z,13.43
2023-05-09T00:20:49.618Z,13.44
2023-05-09T00:23:16.774Z,13.47
2023-05-09T00:25:43.435Z,13.50
2023-05-09T00:28:10.015Z,13.48
2023-05-09T00:30:36.563Z,13.49
2023-05-09T00:33:03.153Z,13.49
2023-05-09T00:35:29.751Z,13.51
2023-05-09T00:37:56.296Z,13.53
2023-05-09T00:40:22.888Z,13.53
2023-05-09T00:42:49.459Z,13.53
2023-05-09T00:45:16.085Z,13.51
2023-05-09T00:47:43.009Z,13.50
2023-05-09T00:50:10.206Z,13.51
2023-05-09T00:52:37.268Z,13.49
2023-05-09T00:55:05.347Z,13.50
2023-05-09T00:57:31.877Z,13.50
2023-05-09T00:59:58.425Z,13.48
2023-05-09T01:02:25.113Z,13.44
2023-05-09T01:04:51.756Z,13.42
2023-05-09T01:07:50.181Z,13.39
2023-05-09T01:10:37.065Z,13.34
2023-05-09T01:13:28.331Z,13.33
2023-05-09T01:16:06.466Z,13.32
2023-05-09T01:18:51.788Z,13.33
2023-05-09T01:21:28.011Z,13.33
2023-05-09T01:24:21.193Z,13.29
2023-05-09T01:27:15.810Z,13.28
2023-05-09T01:29:52.475Z,13.24
2023-05-09T01:32:25.434Z,13.22
2023-05-09T01:34:55.351Z,13.23
2023-05-09T01:37:33.981Z,13.22
2023-05-09T01:40:06.735Z,13.22
2023-05-09T01:42:58.344Z,13.23
2023-05-09T01:45:27.174Z,13.21
2023-05-09T01:47:54.091Z,13.18
2023-05-09T01:50:22.457Z,13.18
2023-05-09T01:52:52.252Z,13.19
2023-05-09T01:55:21.329Z,13.20
2023-05-09T01:57:50.273Z,13.22
2023-05-09T02:00:17.783Z,13.21
2023-05-09T02:02:45.013Z,13.20
2023-05-09T02:05:12.438Z,13.20
2023-05-09T02:07:41.719Z,13.20
2023-05-09T02:10:09.812Z,13.19
2023-05-09T02:12:36.368Z,13.20
2023-05-09T02:15:03.043Z,13.18
2023-05-09T02:17:30.894Z,13.21
2023-05-09T02:19:57.502Z,13.22
2023-05-09T02:22:24.338Z,13.21
2023-05-09T02:24:50.865Z,13.19
2023-05-09T02:27:18.840Z,13.20
2023-05-09T02:29:50.769Z,13.21
2023-05-09T02:32:23.719Z,13.21
2023-05-09T02:34:52.851Z,13.21
2023-05-09T02:37:20.654Z,13.24
2023-05-09T02:39:47.767Z,13.23
2023-05-09T02:42:18.316Z,13.24
2023-05-09T02:44:44.821Z,13.24
2023-05-09T02:47:11.531Z,13.28
2023-05-09T02:49:38.059Z,13.26
2023-05-09T02:52:04.995Z,13.28
2023-05-09T02:54:31.519Z,13.28
2023-05-09T02:56:59.452Z,13.28
2023-05-09T02:59:26.168Z,13.29
2023-05-09T03:01:52.701Z,13.27
2023-05-09T03:04:19.858Z,13.29
2023-05-09T03:06:46.585Z,13.29
2023-05-09T03:09:13.128Z,13.30
2023-05-09T03:11:39.619Z,13.29
2023-05-09T03:14:08.340Z,13.31
2023-05-09T03:16:35.304Z,13.33
2023-05-09T03:19:01.930Z,13.33
2023-05-09T03:21:28.461Z,13.33
2023-05-09T03:23:55.121Z,13.32
2023-05-09T03:26:21.659Z,13.33
2023-05-09T03:28:48.995Z,13.34
2023-05-09T03:31:16.095Z,13.36
2023-05-09T03:33:42.753Z,13.35
2023-05-09T03:36:09.409Z,13.34
2023-05-09T03:38:35.905Z,13.34
2023-05-09T03:41:02.556Z,13.30
2023-05-09T03:43:29.051Z,13.28
2023-05-09T03:45:56.069Z,13.27
2023-05-09T03:48:22.588Z,13.24
2023-05-09T03:50:49.177Z,13.21
2023-05-09T03:53:16.068Z,13.19
2023-05-09T03:55:42.561Z,13.15
2023-05-09T03:58:09.144Z,13.11
2023-05-09T04:00:35.874Z,13.08
2023-05-09T04:03:02.583Z,13.04
2023-05-09T04:05:29.259Z,13.00
2023-05-09T04:07:55.775Z,12.99
2023-05-09T04:10:22.540Z,12.96
2023-05-09T04:12:49.027Z,12.98
2023-05-09T04:15:15.955Z,12.98
2023-05-09T04:17:42.847Z,12.97
2023-05-09T04:20:10.749Z,12.97
2023-05-09T04:22:37.230Z,12.96
2023-05-09T04:25:07.409Z,12.95
2023-05-09T04:27:33.841Z,12.96
2023-05-09T04:30:00.327Z,12.97
2023-05-09T04:32:27.069Z,12.97
2023-05-09T04:34:53.577Z,12.94
2023-05-09T04:37:20.221Z,12.96
2023-05-09T04:39:46.720Z,12.96
2023-05-09T04:42:13.413Z,12.95
2023-05-09T04:44:39.956Z,12.94
2023-05-09T04:47:06.818Z,12.95
2023-05-09T04:49:33.273Z,12.95
2023-05-09T04:51:59.832Z,12.93
2023-05-09T04:54:26.980Z,12.93
2023-05-09T04:56:57.890Z,12.93
2023-05-09T04:59:29.957Z,12.93
2023-05-09T05:01:56.488Z,12.93
2023-05-09T05:04:23.737Z,12.96
2023-05-09T05:06:50.249Z,12.96
2023-05-09T05:09:16.999Z,12.98
2023-05-09T05:11:53.168Z,12.97
2023-05-09T05:14:25.190Z,12.97
2023-05-09T05:16:51.693Z,12.98
2023-05-09T05:19:18.356Z,13.00
2023-05-09T05:21:44.844Z,13.02
2023-05-09T05:24:11.524Z,13.01
2023-05-09T05:26:38.353Z,13.02
2023-05-09T05:29:04.985Z,13.02
2023-05-09T05:31:31.531Z,13.01
2023-05-09T05:33:58.085Z,13.03
2023-05-09T05:36:24.645Z,13.02
2023-05-09T05:38:51.702Z,13.03
2023-05-09T05:41:18.278Z,13.03
2023-05-09T05:43:44.845Z,13.02
2023-05-09T05:46:11.582Z,13.02
2023-05-09T05:48:38.252Z,13.02
2023-05-09T05:51:04.953Z,13.02
2023-05-09T05:53:32.812Z,13.03
2023-05-09T05:55:59.443Z,13.03
2023-05-09T05:58:26.951Z,13.04
2023-05-09T06:00:53.567Z,13.07
2023-05-09T06:03:20.233Z,13.08
2023-05-09T06:05:48.260Z,13.12
2023-05-09T06:08:14.933Z,13.12
2023-05-09T06:10:41.963Z,13.17
2023-05-09T06:13:08.834Z,13.21
2023-05-09T06:15:35.497Z,13.23
2023-05-09T06:18:02.311Z,13.27
2023-05-09T06:20:29.259Z,13.28
2023-05-09T06:22:55.815Z,13.32
2023-05-09T06:25:22.293Z,13.36
2023-05-09T06:27:48.759Z,13.36
2023-05-09T06:30:25.591Z,13.38
2023-05-09T06:32:53.623Z,13.39
2023-05-09T06:35:20.397Z,13.41
2023-05-09T06:37:48.609Z,13.49
2023-05-09T06:40:15.518Z,13.52
2023-05-09T06:42:42.027Z,13.55
2023-05-09T06:45:08.932Z,13.57
2023-05-09T06:47:35.877Z,13.60
2023-05-09T06:50:02.517Z,13.60
2023-05-09T06:52:29.094Z,13.62
2023-05-09T06:54:55.751Z,13.62
2023-05-09T06:57:22.393Z,13.62
2023-05-09T06:59:49.112Z,13.62
2023-05-09T07:02:16.375Z,13.62
2023-05-09T07:04:43.071Z,13.58
2023-05-09T07:07:09.666Z,13.59
2023-05-09T07:09:36.231Z,13.60
2023-05-09T07:12:02.843Z,13.60
2023-05-09T07:14:29.400Z,13.63
2023-05-09T07:17:05.214Z,13.64
2023-05-09T07:19:41.271Z,13.68
2023-05-09T07:22:07.980Z,13.70
2023-05-09T07:24:34.702Z,13.75
2023-05-09T07:27:03.938Z,13.77
2023-05-09T07:29:30.492Z,13.79
2023-05-09T07:31:57.475Z,13.81
2023-05-09T07:34:25.438Z,13.82
2023-05-09T07:36:52.081Z,13.81
2023-05-09T07:39:18.556Z,13.83
2023-05-09T07:41:46.409Z,13.90
2023-05-09T07:44:14.195Z,13.91
2023-05-09T07:46:42.078Z,13.96
2023-05-09T07:49:08.904Z,14.03
2023-05-09T07:51:35.674Z,14.04
2023-05-09T07:54:02.183Z,14.08
2023-05-09T07:56:28.850Z,14.04
2023-05-09T07:58:55.868Z,14.09
2023-05-09T08:01:22.465Z,14.13
2023-05-09T08:03:49.164Z,14.15
2023-05-09T08:06:15.926Z,14.13
2023-05-09T08:08:42.465Z,14.12
2023-05-09T08:11:08.955Z,14.11
2023-05-09T08:13:35.522Z,14.08
2023-05-09T08:16:02.816Z,14.11
2023-05-09T08:18:29.552Z,14.07
2023-05-09T08:20:56.379Z,14.09
2023-05-09T08:23:22.931Z,14.13
2023-05-09T08:25:53.272Z,14.16
2023-05-09T08:28:20.759Z,14.18
2023-05-09T08:30:47.299Z,14.10
2023-05-09T08:33:13.978Z,14.08
2023-05-09T08:35:40.578Z,14.06
2023-05-09T08:38:07.067Z,14.01
2023-05-09T08:40:38.245Z,14.01
2023-05-09T08:43:06.749Z,14.07
2023-05-09T08:45:36.400Z,14.06
2023-05-09T08:48:06.275Z,14.08
2023-05-09T08:50:33.322Z,14.05
2023-05-09T08:52:59.959Z,14.14
2023-05-09T08:55:27.042Z,14.11
2023-05-09T08:57:54.000Z,14.14
2023-05-09T09:00:21.477Z,14.17
2023-05-09T09:02:48.983Z,14.20
2023-05-09T09:05:39.547Z,14.19
2023-05-09T09:08:05.553Z,14.20
2023-05-09T09:10:32.931Z,14.17
2023-05-09T09:13:00.713Z,14.22
2023-05-09T09:15:34.818Z,14.21
2023-05-09T09:18:07.965Z,14.19
2023-05-09T09:20:37.503Z,14.19
2023-05-09T09:23:10.483Z,14.20
2023-05-09T09:25:37.481Z,14.16
2023-05-09T09:28:05.043Z,14.14
2023-05-09T09:30:31.613Z,14.08
2023-05-09T09:33:01.018Z,14.05
2023-05-09T09:35:27.648Z,14.05
2023-05-09T09:38:00.193Z,14.07
2023-05-09T09:40:27.458Z,14.06
2023-05-09T09:42:54.216Z,14.09
2023-05-09T09:45:21.129Z,14.10
2023-05-09T09:47:50.082Z,14.10
2023-05-09T09:50:17.903Z,14.10
2023-05-09T09:52:56.205Z,14.14
2023-05-09T09:55:24.661Z,14.17
2023-05-09T09:57:51.908Z,14.10
2023-05-09T10:00:24.288Z,14.20
2023-05-09T10:02:52.438Z,14.18
2023-05-09T10:05:24.319Z,14.19
2023-05-09T10:07:56.296Z,14.19
2023-05-09T10:10:23.111Z,14.19
2023-05-09T10:12:51.407Z,14.07
2023-05-09T10:15:20.268Z,14.05
2023-05-09T10:17:47.742Z,14.05
2023-05-09T10:20:15.973Z,14.01
2023-05-09T10:22:42.905Z,13.95
2023-05-09T10:25:19.449Z,13.99
2023-05-09T10:27:47.548Z,14.02
2023-05-09T10:30:18.750Z,14.03
2023-05-09T10:32:53.562Z,14.05
2023-05-09T10:35:36.559Z,14.00
2023-05-09T10:38:03.469Z,14.06
2023-05-09T10:40:32.455Z,14.10
2023-05-09T10:42:58.970Z,14.08
2023-05-09T10:45:26.603Z,14.06
2023-05-09T10:47:54.151Z,14.09
2023-05-09T10:50:21.526Z,14.11
2023-05-09T10:53:03.875Z,14.14
2023-05-09T10:55:52.246Z,14.14
2023-05-09T10:58:29.833Z,14.06
2023-05-09T11:00:58.287Z,14.10
2023-05-09T11:03:26.858Z,14.08
2023-05-09T11:05:58.512Z,14.05
2023-05-09T11:08:31.551Z,14.01
2023-05-09T11:11:04.104Z,13.97
2023-05-09T11:13:32.334Z,14.01
2023-05-09T11:16:02.060Z,14.05
2023-05-09T11:18:29.619Z,14.06
2023-05-09T11:20:56.788Z,14.08
2023-05-09T11:23:28.022Z,14.18
2023-05-09T11:26:05.349Z,14.20
2023-05-09T11:28:38.953Z,14.27
2023-05-09T11:31:16.191Z,14.34
2023-05-09T11:33:45.484Z,14.33
2023-05-09T11:36:20.679Z,14.32
2023-05-09T11:38:47.834Z,14.31
2023-05-09T11:41:15.618Z,14.20
2023-05-09T11:43:44.504Z,14.07
2023-05-09T11:46:11.555Z,14.06
2023-05-09T11:48:39.604Z,14.06
2023-05-09T11:51:07.482Z,14.03
2023-05-09T11:53:34.374Z,14.06
2023-05-09T11:56:07.464Z,14.03
2023-05-09T11:58:38.653Z,14.00
2023-05-09T12:01:06.784Z,14.01
2023-05-09T12:03:33.770Z,13.99
2023-05-09T12:06:01.203Z,13.97
2023-05-09T12:08:28.866Z,14.02
2023-05-09T12:10:55.511Z,14.02
2023-05-09T12:13:22.127Z,14.08
2023-05-09T12:15:48.822Z,14.08
2023-05-09T12:18:17.081Z,14.05
2023-05-09T12:20:48.445Z,14.05
2023-05-09T12:23:15.487Z,14.04
2023-05-09T12:25:54.905Z,14.05
2023-05-09T12:28:24.393Z,14.18
2023-05-09T12:30:51.855Z,14.16
2023-05-09T12:33:19.043Z,14.14
2023-05-09T12:35:47.625Z,14.19
2023-05-09T12:38:23.344Z,14.13
2023-05-09T12:41:03.402Z,14.16
2023-05-09T12:43:34.692Z,14.02
2023-05-09T12:46:02.465Z,14.01
2023-05-09T12:48:30.815Z,14.03
2023-05-09T12:51:03.271Z,13.97
2023-05-09T12:53:33.055Z,14.03
2023-05-09T12:56:03.988Z,14.07
2023-05-09T12:58:33.978Z,13.98
2023-05-09T13:01:05.781Z,13.93
2023-05-09T13:03:37.972Z,13.91
2023-05-09T13:06:06.612Z,13.83
2023-05-09T13:08:33.374Z,13.82
2023-05-09T13:11:15.062Z,13.78
2023-05-09T13:13:42.949Z,13.76
2023-05-09T13:16:10.735Z,13.86
2023-05-09T13:18:38.787Z,13.83
2023-05-09T13:21:05.391Z,13.76
2023-05-09T13:23:32.108Z,13.70
2023-05-09T13:25:58.747Z,13.67
2023-05-09T13:28:25.616Z,13.76
2023-05-09T13:30:52.221Z,13.77
2023-05-09T13:33:25.886Z,13.74
2023-05-09T13:35:53.571Z,13.83
2023-05-09T13:38:20.266Z,13.87
2023-05-09T13:40:47.009Z,13.96
2023-05-09T13:43:13.660Z,14.07
2023-05-09T13:45:40.168Z,14.05
2023-05-09T13:48:06.746Z,14.06
2023-05-09T13:50:34.268Z,14.01
2023-05-09T13:53:00.862Z,13.99
2023-05-09T13:55:27.703Z,13.96
2023-05-09T13:57:55.046Z,13.96
2023-05-09T14:00:22.270Z,13.97
2023-05-09T14:02:48.892Z,14.01
2023-05-09T14:05:15.772Z,14.00
2023-05-09T14:07:43.174Z,14.03
2023-05-09T14:10:11.827Z,14.05
2023-05-09T14:12:40.289Z,14.05
2023-05-09T14:15:07.928Z,14.03
2023-05-09T14:17:34.549Z,14.05
2023-05-09T14:20:01.210Z,14.00
2023-05-09T14:22:28.225Z,13.97
2023-05-09T14:24:56.778Z,13.93
2023-05-09T14:27:23.400Z,13.95
2023-05-09T14:29:49.921Z,13.99
2023-05-09T14:32:16.893Z,13.96
2023-05-09T14:34:43.928Z,14.00
2023-05-09T14:37:14.442Z,13.99
2023-05-09T14:39:45.150Z,13.99
2023-05-09T14:42:14.106Z,14.02
2023-05-09T14:44:41.648Z,14.05
2023-05-09T14:47:12.137Z,14.12
2023-05-09T14:49:41.539Z,14.20
2023-05-09T14:52:08.119Z,14.19
2023-05-09T14:54:34.983Z,14.23
2023-05-09T14:57:04.667Z,14.15
2023-05-09T14:59:31.704Z,14.22
2023-05-09T15:01:58.270Z,14.28
2023-05-09T15:04:28.418Z,14.28
2023-05-09T15:06:55.037Z,14.30
2023-05-09T15:09:24.241Z,14.26
2023-05-09T15:11:50.784Z,14.23
2023-05-09T15:14:17.325Z,14.30
2023-05-09T15:16:44.244Z,14.36
2023-05-09T15:19:11.119Z,14.36
2023-05-09T15:21:37.664Z,14.26
2023-05-09T15:24:05.070Z,14.36
2023-05-09T15:26:32.213Z,14.42
2023-05-09T15:28:58.969Z,14.41
2023-05-09T15:31:25.894Z,14.48
2023-05-09T15:33:52.673Z,14.54
2023-05-09T15:36:19.189Z,14.54
2023-05-09T15:38:49.374Z,14.60
2023-05-09T15:41:16.913Z,14.70
2023-05-09T15:43:43.778Z,14.70
2023-05-09T15:46:10.626Z,14.59
2023-05-09T15:48:37.216Z,14.61
2023-05-09T15:51:04.336Z,14.59
2023-05-09T15:53:33.073Z,14.55
2023-05-09T15:56:00.956Z,14.58
2023-05-09T15:58:27.559Z,14.50
2023-05-09T16:00:56.646Z,14.43
2023-05-09T16:03:24.831Z,14.42
2023-05-09T16:05:52.304Z,14.35
2023-05-09T16:08:18.979Z,14.34
2023-05-09T16:10:49.020Z,14.41
2023-05-09T16:13:17.892Z,14.27
2023-05-09T16:15:45.506Z,14.39
2023-05-09T16:18:12.381Z,14.40
2023-05-09T16:20:39.036Z,14.40
2023-05-09T16:23:05.729Z,14.36
2023-05-09T16:25:34.481Z,14.40
2023-05-09T16:28:02.008Z,14.40
2023-05-09T16:30:28.553Z,14.38
2023-05-09T16:32:55.304Z,14.42
2023-05-09T16:35:21.993Z,14.50
2023-05-09T16:37:48.607Z,14.62
2023-05-09T16:40:15.547Z,14.67
2023-05-09T16:42:43.005Z,14.70
2023-05-09T16:45:10.049Z,14.80
2023-05-09T16:47:36.770Z,14.76
2023-05-09T16:50:04.752Z,14.76
2023-05-09T16:52:31.474Z,14.65
2023-05-09T16:54:59.518Z,14.73
2023-05-09T16:57:26.190Z,14.72
2023-05-09T16:59:53.914Z,14.74
2023-05-09T17:02:20.517Z,14.78
2023-05-09T17:04:47.318Z,14.74
2023-05-09T17:07:14.731Z,14.76
2023-05-09T17:09:41.477Z,14.78
2023-05-09T17:12:10.837Z,14.79
2023-05-09T17:14:37.545Z,14.74
2023-05-09T17:17:04.063Z,14.75
2023-05-09T17:19:30.676Z,14.73
2023-05-09T17:21:59.231Z,14.70
2023-05-09T17:24:25.763Z,14.58
2023-05-09T17:26:52.697Z,14.61
2023-05-09T17:29:19.244Z,14.51
2023-05-09T17:31:45.881Z,14.55
2023-05-09T17:34:12.424Z,14.54
2023-05-09T17:36:40.435Z,14.44
2023-05-09T17:39:07.169Z,14.34
2023-05-09T17:41:33.834Z,14.41
2023-05-09T17:44:00.396Z,14.40
2023-05-09T17:46:27.326Z,14.42
2023-05-09T17:48:53.955Z,14.46
2023-05-09T17:51:21.006Z,14.39
2023-05-09T17:53:47.615Z,14.28
2023-05-09T17:56:14.147Z,14.22
2023-05-09T17:58:41.096Z,14.09
2023-05-09T18:01:12.623Z,14.06
2023-05-09T18:03:41.936Z,14.00
2023-05-09T18:06:08.686Z,14.00
2023-05-09T18:08:36.908Z,13.98
2023-05-09T18:11:05.799Z,13.97
2023-05-09T18:13:36.079Z,13.78
2023-05-09T18:16:03.096Z,13.76
2023-05-09T18:18:34.469Z,13.78
2023-05-09T18:21:01.194Z,13.69
2023-05-09T18:23:30.591Z,13.60
2023-05-09T18:25:57.118Z,13.55
2023-05-09T18:28:29.082Z,13.52
2023-05-09T18:30:58.490Z,13.58
2023-05-09T18:33:26.714Z,13.57
2023-05-09T18:35:54.628Z,13.53
2023-05-09T18:38:21.788Z,13.55
2023-05-09T18:40:48.476Z,13.57
2023-05-09T18:43:16.607Z,13.57
2023-05-09T18:45:45.044Z,13.45
2023-05-09T18:48:11.673Z,13.41
2023-05-09T18:50:38.326Z,13.42
2023-05-09T18:53:05.013Z,13.41
2023-05-09T18:55:31.531Z,13.38
2023-05-09T18:57:58.240Z,13.40
2023-05-09T19:00:24.777Z,13.37
2023-05-09T19:02:51.867Z,13.38
2023-05-09T19:05:18.885Z,13.35
2023-05-09T19:07:45.399Z,13.31
2023-05-09T19:10:12.574Z,13.27
2023-05-09T19:12:39.421Z,13.25
2023-05-09T19:15:06.635Z,13.18
2023-05-09T19:17:33.240Z,13.12
2023-05-09T19:19:59.788Z,12.99
2023-05-09T19:22:26.351Z,12.91
2023-05-09T19:24:52.921Z,12.86
2023-05-09T19:27:19.573Z,12.81
2023-05-09T19:29:49.908Z,12.77
2023-05-09T19:32:17.954Z,12.71
2023-05-09T19:34:44.656Z,12.63
2023-05-09T19:37:11.209Z,12.61
2023-05-09T19:39:37.862Z,12.61
2023-05-09T19:42:04.396Z,12.60
2023-05-09T19:44:31.048Z,12.61
2023-05-09T19:46:58.579Z,12.51
2023-05-09T19:49:25.965Z,12.55
2023-05-09T19:51:52.606Z,12.48
2023-05-09T19:54:19.319Z,12.53
2023-05-09T19:56:45.942Z,12.48
2023-05-09T19:59:12.585Z,12.44
2023-05-09T20:01:39.185Z,12.39
2023-05-09T20:04:07.435Z,12.37
2023-05-09T20:06:34.167Z,12.35
2023-05-09T20:09:00.978Z,12.37
2023-05-09T20:11:27.678Z,12.36
2023-05-09T20:13:54.344Z,12.34
2023-05-09T20:16:21.334Z,12.36
2023-05-09T20:18:50.033Z,12.38
2023-05-09T20:21:18.059Z,12.36
2023-05-09T20:23:44.647Z,12.39
2023-05-09T20:26:11.284Z,12.41
2023-05-09T20:28:38.339Z,12.40
2023-05-09T20:31:05.100Z,12.42
2023-05-09T20:33:31.771Z,12.37
2023-05-09T20:35:58.473Z,12.38
2023-05-09T20:38:25.553Z,12.37
2023-05-09T20:40:52.180Z,12.36
2023-05-09T20:43:19.795Z,12.30
2023-05-09T20:45:46.538Z,12.27
2023-05-09T20:48:13.691Z,12.23
2023-05-09T20:50:40.444Z,12.15
2023-05-09T20:53:07.121Z,12.07
2023-05-09T20:55:33.666Z,11.97
2023-05-09T20:58:00.460Z,11.90
2023-05-09T21:00:27.023Z,11.79
2023-05-09T21:02:57.518Z,11.70
2023-05-09T21:05:25.059Z,11.54
2023-05-09T21:07:51.613Z,11.49
2023-05-09T21:10:18.510Z,11.37
2023-05-09T21:12:47.431Z,11.36
2023-05-09T21:15:14.118Z,11.40
2023-05-09T21:17:40.947Z,11.47
2023-05-09T21:20:08.530Z,11.45
2023-05-09T21:22:35.201Z,11.46
2023-05-09T21:25:01.725Z,11.44
2023-05-09T21:27:30.508Z,11.39
2023-05-09T21:29:57.646Z,11.41
2023-05-09T21:32:24.517Z,11.45
2023-05-09T21:34:51.119Z,11.54
2023-05-09T21:37:17.668Z,11.59
2023-05-09T21:39:45.197Z,11.58
2023-05-09T21:42:11.890Z,11.57
2023-05-09T21:44:38.490Z,11.42
2023-05-09T21:47:05.291Z,11.50
2023-05-09T21:49:32.067Z,11.48
2023-05-09T21:51:58.742Z,11.54
2023-05-09T21:54:25.430Z,11.57
2023-05-09T21:56:52.136Z,11.67
2023-05-09T21:59:20.893Z,11.78
2023-05-09T22:01:47.441Z,11.93
2023-05-09T22:04:14.260Z,12.01
2023-05-09T22:06:43.928Z,12.10
2023-05-09T22:09:10.860Z,12.14
2023-05-09T22:11:37.698Z,12.19
2023-05-09T22:14:04.270Z,12.25
2023-05-09T22:16:30.804Z,12.32
2023-05-09T22:18:57.657Z,12.33
2023-05-09T22:21:24.261Z,12.38
2023-05-09T22:23:50.904Z,12.42
2023-05-09T22:26:17.494Z,12.44
2023-05-09T22:28:43.967Z,12.45
2023-05-09T22:31:10.558Z,12.46
2023-05-09T22:33:37.023Z,12.46
2023-05-09T22:36:03.964Z,12.42
2023-05-09T22:38:30.607Z,12.37
2023-05-09T22:40:57.315Z,12.39
2023-05-09T22:43:25.401Z,12.33
2023-05-09T22:45:55.270Z,12.29
2023-05-09T22:48:22.007Z,12.20
2023-05-09T22:50:48.565Z,12.15
2023-05-09T22:53:15.092Z,12.02
2023-05-09T22:55:41.806Z,11.93
2023-05-09T22:58:08.474Z,11.82
2023-05-09T23:00:35.136Z,11.74
2023-05-09T23:03:03.525Z,11.69
2023-05-09T23:05:31.369Z,11.70
2023-05-09T23:07:57.978Z,11.69
2023-05-09T23:10:24.510Z,11.61
2023-05-09T23:12:51.222Z,11.54
2023-05-09T23:15:17.974Z,11.48
2023-05-09T23:17:44.549Z,11.38
2023-05-09T23:20:11.657Z,11.46
2023-05-09T23:22:38.256Z,11.49
2023-05-09T23:25:06.511Z,11.58
2023-05-09T23:27:33.036Z,11.67
2023-05-09T23:29:59.662Z,11.71
2023-05-09T23:32:26.250Z,11.75
2023-05-09T23:34:53.655Z,11.80
2023-05-09T23:37:20.330Z,11.80
2023-05-09T23:39:46.904Z,11.81
2023-05-09T23:42:13.479Z,11.81
2023-05-09T23:44:40.414Z,11.85
2023-05-09T23:47:07.337Z,11.84
2023-05-09T23:49:34.006Z,11.84
2023-05-09T23:52:00.559Z,11.82
2023-05-09T23:54:27.400Z,11.78
2023-05-09T23:56:54.299Z,11.74
2023-05-09T23:59:21.012Z,11.71
